This is the latest recevied weather packets stored in our database for station/object M0CJS. If no packets are shown the sender has not sent any weather packets the latest 10 day(s).
| Time | Temp. | Humidity | Pressure | Rain* | Wind** | Luminosity | Snow |
|---|---|---|---|---|---|---|---|
| 1777967717 | 12.78° C | 79% | 1016.3 hPa | 0 mm | - | - | - |
| 1777965917 | 9.44° C | 88% | 1016.1 hPa | 0 mm | - | - | - |
| 1777965317 | 8.89° C | 88% | 1016.1 hPa | 0 mm | - | - | - |
| 1777964137 | 9.44° C | 89% | 1016.3 hPa | 0 mm | - | - | - |
| 1777956320 | 6.11° C | 95% | 1016 hPa | 0 mm | - | - | - |
| 1777950318 | 7.22° C | 93% | 1016 hPa | 0 mm | - | - | - |
| 1777947916 | 8.89° C | 94% | 1016.1 hPa | 0 mm | - | - | - |
| 1777947336 | 8.89° C | 94% | 1016.1 hPa | 0 mm | - | - | - |
| 1777941336 | 9.44° C | 94% | 1017 hPa | 0 mm | - | - | - |
| 1777937116 | 9.44° C | 93% | 1017.1 hPa | 0 mm | - | - | - |
| 1777936536 | 9.44° C | 93% | 1017.1 hPa | 0 mm | - | - | - |
| 1777930516 | 10.56° C | 88% | 1017.5 hPa | 0 mm | - | - | - |
| 1777929916 | 10.56° C | 87% | 1017.3 hPa | 0 mm | - | - | - |
| 1777928716 | 11.11° C | 87% | 1017.3 hPa | 0 mm | - | - | - |
| 1777925716 | 11.11° C | 87% | 1017.4 hPa | 0 mm | - | - | - |
| 1777917317 | 12.22° C | 82% | 1016.8 hPa | 0 mm | - | - | - |
| 1777914917 | 12.78° C | 82% | 1017 hPa | 0 mm | - | - | - |
| 1777910757 | 12.22° C | 82% | 1017.3 hPa | 0 mm | - | - | - |
| 1777910117 | 12.22° C | 82% | 1017.3 hPa | 0 mm | - | - | - |
| 1777906517 | 12.22° C | 82% | 1017.2 hPa | 0 mm | - | - | - |
| 1777905918 | 12.78° C | 81% | 1017.2 hPa | 0 mm | - | - | - |
| 1777905317 | 12.78° C | 81% | 1017.3 hPa | 0 mm | - | - | - |
| 1777895718 | 11.67° C | 84% | 1017.8 hPa | 0 mm | - | - | - |
| 1777893917 | 11.67° C | 82% | 1017.8 hPa | 0 mm | - | - | - |
| 1777893317 | 12.22° C | 82% | 1017.8 hPa | 0 mm | - | - | - |
* Rain latest hour (hover to see other rain measurements)
** Current wind speed in m/s (hover to see current wind gust speed)